createdAt,value
2019-01-18T00:00:35.137Z,4.89
2019-01-18T00:01:38.637Z,4.93
2019-01-18T00:02:42.121Z,4.91
2019-01-18T00:03:45.637Z,4.86
2019-01-18T00:04:49.081Z,4.86
2019-01-18T00:05:52.508Z,4.95
2019-01-18T00:06:56.025Z,4.99
2019-01-18T00:07:59.420Z,5.05
2019-01-18T00:09:04.276Z,5.10
2019-01-18T00:10:09.704Z,5.11
2019-01-18T00:11:13.146Z,5.06
2019-01-18T00:12:16.735Z,5.09
2019-01-18T00:13:20.152Z,5.10
2019-01-18T00:14:23.600Z,5.06
2019-01-18T00:15:27.986Z,5.04
2019-01-18T00:16:31.409Z,5.08
2019-01-18T00:17:34.831Z,5.06
2019-01-18T00:18:38.326Z,4.98
2019-01-18T00:19:41.851Z,4.95
2019-01-18T00:20:45.342Z,4.89
2019-01-18T00:21:48.767Z,4.90
2019-01-18T00:22:52.279Z,4.91
2019-01-18T00:23:55.706Z,4.90
2019-01-18T00:24:59.153Z,4.89
2019-01-18T00:26:02.647Z,4.93
2019-01-18T00:27:06.071Z,4.95
2019-01-18T00:28:09.516Z,4.99
2019-01-18T00:29:12.942Z,5.03
2019-01-18T00:30:21.370Z,5.05
2019-01-18T00:31:24.881Z,4.99
2019-01-18T00:32:28.375Z,4.99
2019-01-18T00:33:31.814Z,5.03
2019-01-18T00:34:35.252Z,5.07
2019-01-18T00:35:38.779Z,5.08
2019-01-18T00:36:42.268Z,5.13
2019-01-18T00:37:45.692Z,5.20
2019-01-18T00:38:49.126Z,5.22
2019-01-18T00:39:52.566Z,5.18
2019-01-18T00:40:55.992Z,5.15
2019-01-18T00:41:59.488Z,5.14
2019-01-18T00:43:02.925Z,5.16
2019-01-18T00:44:06.354Z,5.16
2019-01-18T00:45:15.388Z,5.10
2019-01-18T00:46:18.835Z,5.03
2019-01-18T00:47:22.331Z,5.06
2019-01-18T00:48:25.758Z,5.04
2019-01-18T00:49:29.194Z,5.00
2019-01-18T00:50:32.684Z,4.99
2019-01-18T00:51:36.117Z,5.08
2019-01-18T00:52:39.607Z,5.06
2019-01-18T00:53:43.034Z,5.03
2019-01-18T00:54:46.489Z,5.00
2019-01-18T00:55:49.874Z,4.97
2019-01-18T00:56:53.395Z,5.02
2019-01-18T00:57:56.882Z,5.01
2019-01-18T00:59:00.307Z,5.06
2019-01-18T01:00:07.351Z,4.97
2019-01-18T01:01:10.958Z,4.96
2019-01-18T01:02:14.573Z,4.94
2019-01-18T01:03:18.138Z,4.81
2019-01-18T01:04:21.715Z,4.74
2019-01-18T01:05:26.163Z,4.65
2019-01-18T01:06:29.601Z,4.61
2019-01-18T01:07:33.090Z,4.66
2019-01-18T01:08:36.575Z,4.70
2019-01-18T01:09:40.126Z,4.73
2019-01-18T01:10:43.611Z,4.64
2019-01-18T01:11:47.073Z,4.57
2019-01-18T01:12:50.574Z,4.62
2019-01-18T01:13:54.398Z,4.61
2019-01-18T01:14:57.861Z,4.56
2019-01-18T01:16:01.369Z,4.51
2019-01-18T01:17:05.323Z,4.50
2019-01-18T01:18:09.191Z,4.40
2019-01-18T01:19:12.613Z,4.31
2019-01-18T01:20:18.689Z,4.26
2019-01-18T01:21:22.144Z,4.22
2019-01-18T01:22:25.728Z,4.25
2019-01-18T01:23:29.235Z,4.20
2019-01-18T01:24:32.684Z,4.22
2019-01-18T01:25:36.108Z,4.29
2019-01-18T01:26:39.698Z,4.28
2019-01-18T01:27:43.432Z,4.27
2019-01-18T01:28:46.887Z,4.19
2019-01-18T01:29:50.383Z,4.18
2019-01-18T01:30:53.881Z,4.10
2019-01-18T01:31:57.350Z,4.06
2019-01-18T01:33:00.942Z,4.04
2019-01-18T01:34:04.464Z,4.01
2019-01-18T01:35:08.018Z,4.04
2019-01-18T01:36:11.473Z,3.99
2019-01-18T01:37:14.997Z,4.04
2019-01-18T01:38:18.425Z,4.06
2019-01-18T01:39:21.846Z,4.14
2019-01-18T01:40:26.713Z,4.15
2019-01-18T01:41:30.150Z,4.14
2019-01-18T01:42:33.592Z,4.19
2019-01-18T01:43:37.085Z,4.18
2019-01-18T01:44:40.603Z,4.22
2019-01-18T01:45:44.151Z,4.22
2019-01-18T01:46:47.646Z,4.22
2019-01-18T01:47:51.093Z,4.23
2019-01-18T01:48:54.518Z,4.18
2019-01-18T01:49:57.948Z,4.16
2019-01-18T01:51:01.378Z,4.22
2019-01-18T01:52:04.937Z,4.19
2019-01-18T01:53:08.388Z,4.08
2019-01-18T01:54:11.815Z,4.02
2019-01-18T01:55:15.377Z,4.03
2019-01-18T01:56:18.876Z,4.01
2019-01-18T01:57:22.338Z,4.07
2019-01-18T01:58:25.764Z,4.08
2019-01-18T01:59:29.323Z,4.02
2019-01-18T02:00:32.890Z,4.07
2019-01-18T02:01:36.385Z,4.10
2019-01-18T02:02:39.897Z,4.19
2019-01-18T02:03:43.313Z,4.16
2019-01-18T02:04:46.765Z,4.13
2019-01-18T02:05:50.257Z,4.14
2019-01-18T02:06:53.869Z,4.10
2019-01-18T02:07:57.292Z,4.16
2019-01-18T02:09:00.712Z,4.12
2019-01-18T02:10:07.113Z,4.07
2019-01-18T02:11:10.611Z,4.02
2019-01-18T02:12:14.057Z,4.04
2019-01-18T02:13:17.474Z,3.98
2019-01-18T02:14:20.897Z,3.99
2019-01-18T02:15:26.059Z,3.99
2019-01-18T02:16:29.558Z,4.01
2019-01-18T02:17:33.009Z,3.99
2019-01-18T02:18:36.519Z,4.07
2019-01-18T02:19:39.951Z,4.10
2019-01-18T02:20:44.148Z,4.08
2019-01-18T02:21:47.644Z,4.08
2019-01-18T02:22:52.045Z,4.09
2019-01-18T02:23:55.466Z,4.07
2019-01-18T02:24:58.904Z,4.06
2019-01-18T02:26:02.485Z,4.02
2019-01-18T02:27:06.128Z,3.94
2019-01-18T02:28:09.580Z,3.91
2019-01-18T02:29:13.157Z,3.91
2019-01-18T02:30:25.464Z,3.98
2019-01-18T02:31:28.922Z,3.96
2019-01-18T02:32:32.381Z,3.98
2019-01-18T02:33:35.828Z,3.97
2019-01-18T02:34:39.329Z,3.93
2019-01-18T02:35:42.761Z,3.88
2019-01-18T02:36:46.340Z,3.86
2019-01-18T02:37:49.932Z,3.86
2019-01-18T02:38:53.371Z,3.84
2019-01-18T02:39:56.936Z,3.83
2019-01-18T02:41:00.360Z,3.84
2019-01-18T02:42:04.873Z,3.87
2019-01-18T02:43:08.360Z,3.85
2019-01-18T02:44:11.775Z,3.82
2019-01-18T02:45:20.489Z,3.82
2019-01-18T02:46:23.987Z,3.84
2019-01-18T02:47:27.437Z,3.85
2019-01-18T02:48:30.889Z,3.89
2019-01-18T02:49:34.323Z,3.91
2019-01-18T02:50:37.824Z,3.84
2019-01-18T02:51:41.321Z,3.79
2019-01-18T02:52:44.838Z,3.79
2019-01-18T02:53:48.340Z,3.81
2019-01-18T02:54:51.777Z,3.79
2019-01-18T02:55:55.207Z,3.76
2019-01-18T02:56:58.649Z,3.78
2019-01-18T02:58:02.097Z,3.75
2019-01-18T02:59:05.605Z,3.79
2019-01-18T03:00:12.307Z,3.74
2019-01-18T03:01:15.737Z,3.75
2019-01-18T03:02:19.232Z,3.77
2019-01-18T03:03:22.740Z,3.85
2019-01-18T03:04:29.274Z,3.87
2019-01-18T03:05:32.771Z,3.85
2019-01-18T03:06:36.269Z,3.90
2019-01-18T03:07:39.863Z,3.84
2019-01-18T03:08:43.432Z,3.82
2019-01-18T03:09:46.929Z,3.83
2019-01-18T03:10:50.500Z,3.78
2019-01-18T03:11:54.008Z,3.74
2019-01-18T03:12:57.697Z,3.80
2019-01-18T03:14:01.121Z,3.84
2019-01-18T03:15:06.606Z,3.84
2019-01-18T03:16:10.015Z,3.76
2019-01-18T03:17:13.440Z,3.82
2019-01-18T03:18:16.896Z,3.72
2019-01-18T03:19:20.324Z,3.67
2019-01-18T03:20:23.897Z,3.70
2019-01-18T03:21:27.392Z,3.62
2019-01-18T03:22:30.829Z,3.56
2019-01-18T03:23:34.271Z,3.51
2019-01-18T03:24:37.703Z,3.53
2019-01-18T03:25:41.207Z,3.54
2019-01-18T03:26:44.637Z,3.52
2019-01-18T03:27:48.078Z,3.56
2019-01-18T03:28:51.508Z,3.56
2019-01-18T03:29:54.952Z,3.58
2019-01-18T03:30:58.387Z,3.59
2019-01-18T03:32:01.893Z,3.55
2019-01-18T03:33:05.372Z,3.50
2019-01-18T03:34:08.970Z,3.45
2019-01-18T03:35:14.237Z,3.47
2019-01-18T03:36:17.730Z,3.51
2019-01-18T03:37:21.159Z,3.50
2019-01-18T03:38:24.690Z,3.54
2019-01-18T03:39:28.114Z,3.55
2019-01-18T03:40:31.545Z,3.51
2019-01-18T03:41:34.973Z,3.58
2019-01-18T03:42:38.398Z,3.57
2019-01-18T03:43:41.909Z,3.57
2019-01-18T03:44:45.401Z,3.61
2019-01-18T03:45:48.888Z,3.58
2019-01-18T03:46:52.384Z,3.53
2019-01-18T03:47:55.825Z,3.49
2019-01-18T03:48:59.241Z,3.46
2019-01-18T03:50:02.675Z,3.48
2019-01-18T03:51:06.269Z,3.50
2019-01-18T03:52:09.768Z,3.48
2019-01-18T03:53:13.226Z,3.48
2019-01-18T03:54:16.714Z,3.49
2019-01-18T03:55:20.281Z,3.49
2019-01-18T03:56:23.704Z,3.43
2019-01-18T03:57:27.192Z,3.38
2019-01-18T03:58:30.640Z,3.38
2019-01-18T03:59:34.069Z,3.37
2019-01-18T04:00:37.506Z,3.38
2019-01-18T04:01:40.934Z,3.27
2019-01-18T04:02:44.370Z,3.26
2019-01-18T04:03:47.877Z,3.22
2019-01-18T04:04:51.368Z,3.22
2019-01-18T04:05:54.876Z,3.22
2019-01-18T04:06:58.377Z,3.22
2019-01-18T04:08:01.823Z,3.25
2019-01-18T04:09:07.000Z,3.24
2019-01-18T04:10:15.652Z,3.17
2019-01-18T04:11:19.155Z,3.13
2019-01-18T04:12:22.616Z,3.04
2019-01-18T04:13:26.107Z,3.07
2019-01-18T04:14:29.534Z,3.08
2019-01-18T04:15:33.028Z,3.07
2019-01-18T04:16:36.528Z,3.12
2019-01-18T04:17:39.979Z,3.12
2019-01-18T04:18:43.403Z,3.14
2019-01-18T04:19:46.833Z,3.16
2019-01-18T04:20:50.259Z,3.17
2019-01-18T04:21:53.704Z,3.04
2019-01-18T04:22:57.179Z,3.10
2019-01-18T04:24:00.639Z,3.12
2019-01-18T04:25:06.482Z,3.06
2019-01-18T04:26:10.045Z,3.02
2019-01-18T04:27:13.582Z,3.02
2019-01-18T04:28:17.186Z,3.04
2019-01-18T04:29:20.607Z,3.03
2019-01-18T04:30:24.374Z,3.01
2019-01-18T04:31:27.883Z,3.05
2019-01-18T04:32:31.322Z,3.06
2019-01-18T04:33:34.835Z,3.11
2019-01-18T04:34:38.273Z,3.17
2019-01-18T04:35:41.769Z,3.18
2019-01-18T04:36:45.196Z,3.21
2019-01-18T04:37:48.789Z,3.14
2019-01-18T04:38:52.233Z,3.00
2019-01-18T04:39:55.723Z,3.00
2019-01-18T04:40:59.218Z,3.00
2019-01-18T04:42:02.647Z,3.02
2019-01-18T04:43:06.073Z,3.04
2019-01-18T04:44:09.516Z,3.05
2019-01-18T04:45:13.018Z,2.95
2019-01-18T04:46:16.459Z,2.94
2019-01-18T04:47:19.886Z,2.96
2019-01-18T04:48:23.316Z,2.95
2019-01-18T04:49:26.882Z,2.96
2019-01-18T04:50:30.432Z,3.01
2019-01-18T04:51:33.870Z,2.98
2019-01-18T04:52:37.308Z,3.03
2019-01-18T04:53:40.737Z,3.04
2019-01-18T04:54:44.185Z,3.07
2019-01-18T04:55:47.610Z,3.06
2019-01-18T04:56:51.029Z,3.05
2019-01-18T04:57:54.516Z,3.08
2019-01-18T04:58:57.967Z,2.99
2019-01-18T05:00:01.427Z,2.93
2019-01-18T05:01:04.920Z,2.94
2019-01-18T05:02:08.338Z,2.98
2019-01-18T05:03:11.837Z,2.98
2019-01-18T05:04:15.483Z,2.92
2019-01-18T05:05:19.267Z,2.88
2019-01-18T05:06:22.689Z,2.90
2019-01-18T05:07:26.156Z,2.95
2019-01-18T05:08:29.587Z,3.03
2019-01-18T05:09:33.076Z,3.02
2019-01-18T05:10:36.569Z,3.01
2019-01-18T05:11:40.084Z,2.97
2019-01-18T05:12:43.487Z,2.99
2019-01-18T05:13:46.910Z,2.99
2019-01-18T05:14:50.360Z,3.08
2019-01-18T05:15:53.785Z,3.09
2019-01-18T05:16:57.216Z,3.12
2019-01-18T05:18:00.778Z,3.14
2019-01-18T05:19:04.272Z,3.11
2019-01-18T05:20:09.361Z,3.09
2019-01-18T05:21:12.785Z,3.09
2019-01-18T05:22:16.208Z,3.13
2019-01-18T05:23:19.636Z,3.15
2019-01-18T05:24:23.160Z,3.07
2019-01-18T05:25:26.632Z,3.10
2019-01-18T05:26:30.058Z,3.10
2019-01-18T05:27:33.489Z,3.08
2019-01-18T05:28:36.921Z,3.02
2019-01-18T05:29:40.438Z,3.00
2019-01-18T05:30:47.800Z,2.93
2019-01-18T05:31:49.031Z,2.90
2019-01-18T05:32:52.598Z,2.90
2019-01-18T05:33:56.163Z,2.97
2019-01-18T05:34:59.627Z,3.01
2019-01-18T05:36:03.197Z,2.96
2019-01-18T05:37:06.695Z,2.91
2019-01-18T05:38:10.128Z,2.90
2019-01-18T05:39:13.542Z,2.95
2019-01-18T05:40:18.943Z,2.96
2019-01-18T05:41:22.373Z,2.98
2019-01-18T05:42:25.811Z,2.95
2019-01-18T05:43:29.239Z,3.00
2019-01-18T05:44:32.765Z,2.99
2019-01-18T05:45:36.327Z,3.04
2019-01-18T05:46:39.761Z,3.09
2019-01-18T05:47:43.258Z,3.04
2019-01-18T05:48:46.750Z,3.04
2019-01-18T05:49:50.202Z,3.05
2019-01-18T05:50:53.720Z,3.01
2019-01-18T05:51:57.156Z,3.08
2019-01-18T05:53:02.597Z,3.14
2019-01-18T05:54:06.029Z,3.14
2019-01-18T05:55:09.686Z,3.16
2019-01-18T05:56:13.282Z,3.05
2019-01-18T05:57:16.735Z,3.06
2019-01-18T05:58:20.162Z,2.98
2019-01-18T05:59:23.587Z,2.97
2019-01-18T06:00:30.816Z,2.97
2019-01-18T06:01:34.320Z,2.95
2019-01-18T06:02:37.801Z,3.00
2019-01-18T06:03:41.292Z,2.98
2019-01-18T06:04:46.291Z,2.97
2019-01-18T06:05:49.996Z,2.95
2019-01-18T06:06:53.507Z,2.97
2019-01-18T06:07:56.931Z,3.02
2019-01-18T06:09:00.380Z,3.02
2019-01-18T06:10:05.660Z,3.03
2019-01-18T06:11:09.176Z,2.82
2019-01-18T06:12:12.604Z,2.84
2019-01-18T06:13:16.590Z,2.90
2019-01-18T06:14:20.237Z,2.86
2019-01-18T06:15:23.848Z,2.94
2019-01-18T06:16:27.425Z,2.94
2019-01-18T06:17:31.037Z,2.87
2019-01-18T06:18:34.602Z,2.86
2019-01-18T06:19:38.029Z,2.90
2019-01-18T06:20:41.560Z,2.87
2019-01-18T06:21:45.053Z,2.88
2019-01-18T06:22:48.649Z,2.90
2019-01-18T06:23:52.079Z,2.97
2019-01-18T06:24:55.577Z,2.98
2019-01-18T06:25:59.122Z,2.97
2019-01-18T06:27:02.617Z,2.97
2019-01-18T06:28:06.185Z,2.93
2019-01-18T06:29:09.679Z,2.85
2019-01-18T06:30:18.390Z,2.83
2019-01-18T06:31:21.914Z,2.78
2019-01-18T06:32:25.487Z,2.85
2019-01-18T06:33:29.975Z,2.84
2019-01-18T06:34:33.562Z,2.82
2019-01-18T06:35:37.091Z,2.86
2019-01-18T06:36:40.507Z,2.87
2019-01-18T06:37:44.129Z,2.86
2019-01-18T06:38:47.575Z,2.91
2019-01-18T06:39:51.015Z,2.83
2019-01-18T06:40:55.705Z,2.85
2019-01-18T06:41:59.204Z,2.86
2019-01-18T06:43:02.740Z,2.80
2019-01-18T06:44:07.755Z,2.72
2019-01-18T06:45:13.725Z,2.67
2019-01-18T06:46:17.173Z,2.75
2019-01-18T06:47:20.744Z,2.80
2019-01-18T06:48:25.227Z,2.80
2019-01-18T06:49:28.789Z,2.82
2019-01-18T06:50:32.254Z,2.94
2019-01-18T06:51:35.839Z,2.94
2019-01-18T06:52:39.348Z,2.91
2019-01-18T06:53:42.884Z,2.95
2019-01-18T06:54:46.351Z,2.87
2019-01-18T06:55:49.842Z,2.85
2019-01-18T06:56:53.270Z,2.85
2019-01-18T06:57:56.837Z,2.87
2019-01-18T06:59:00.272Z,2.91
2019-01-18T07:00:05.467Z,2.85
2019-01-18T07:01:08.908Z,2.82
2019-01-18T07:02:12.478Z,2.90
2019-01-18T07:03:16.048Z,2.96
2019-01-18T07:04:19.730Z,3.02
2019-01-18T07:05:23.294Z,2.97
2019-01-18T07:06:26.790Z,2.88
2019-01-18T07:07:30.370Z,2.88
2019-01-18T07:08:33.966Z,2.88
2019-01-18T07:09:37.387Z,2.91
2019-01-18T07:10:40.943Z,2.89
2019-01-18T07:11:44.504Z,2.96
2019-01-18T07:12:48.083Z,2.98
2019-01-18T07:13:51.642Z,2.99
2019-01-18T07:14:55.330Z,3.02
2019-01-18T07:15:58.929Z,3.02
2019-01-18T07:17:02.381Z,2.93
2019-01-18T07:18:05.975Z,2.92
2019-01-18T07:19:09.416Z,2.90
2019-01-18T07:20:14.683Z,2.89
2019-01-18T07:21:18.232Z,2.90
2019-01-18T07:22:21.752Z,2.95
2019-01-18T07:23:25.240Z,3.02
2019-01-18T07:24:28.745Z,3.00
2019-01-18T07:25:32.411Z,3.00
2019-01-18T07:26:35.936Z,3.06
2019-01-18T07:27:39.514Z,3.05
2019-01-18T07:28:42.984Z,3.10
2019-01-18T07:29:46.502Z,3.06
2019-01-18T07:30:52.888Z,3.04
2019-01-18T07:31:56.519Z,3.08
2019-01-18T07:33:00.081Z,3.00
2019-01-18T07:34:03.525Z,3.02
2019-01-18T07:35:08.552Z,3.02
2019-01-18T07:36:12.053Z,2.98
2019-01-18T07:37:15.595Z,3.03
2019-01-18T07:38:19.141Z,3.09
2019-01-18T07:39:22.657Z,3.08
2019-01-18T07:40:26.278Z,3.07
2019-01-18T07:41:29.813Z,3.09
2019-01-18T07:42:33.282Z,3.09
2019-01-18T07:43:37.079Z,3.08
2019-01-18T07:44:40.654Z,3.13
2019-01-18T07:45:44.402Z,3.17
2019-01-18T07:46:47.841Z,3.12
2019-01-18T07:47:51.343Z,2.99
2019-01-18T07:48:54.852Z,2.93
2019-01-18T07:49:58.363Z,2.95
2019-01-18T07:51:01.886Z,3.02
2019-01-18T07:52:05.501Z,2.99
2019-01-18T07:53:09.226Z,3.05
2019-01-18T07:54:12.769Z,3.12
2019-01-18T07:55:16.347Z,3.10
2019-01-18T07:56:19.869Z,3.13
2019-01-18T07:57:23.379Z,3.19
2019-01-18T07:58:26.937Z,3.21
2019-01-18T07:59:30.440Z,3.25
2019-01-18T08:00:34.071Z,3.23
2019-01-18T08:01:37.716Z,3.21
2019-01-18T08:02:41.283Z,3.21
2019-01-18T08:03:44.722Z,3.16
2019-01-18T08:04:48.235Z,3.15
2019-01-18T08:05:51.749Z,3.10
2019-01-18T08:06:55.381Z,3.15
2019-01-18T08:07:59.142Z,3.16
2019-01-18T08:09:04.777Z,3.18
2019-01-18T08:10:11.329Z,3.17
2019-01-18T08:11:14.826Z,3.22
2019-01-18T08:12:18.252Z,3.23
2019-01-18T08:13:21.743Z,3.22
2019-01-18T08:14:25.258Z,3.20
2019-01-18T08:15:29.276Z,3.15
2019-01-18T08:16:32.727Z,3.10
2019-01-18T08:17:36.175Z,3.03
2019-01-18T08:18:39.625Z,3.08
2019-01-18T08:19:43.136Z,3.12
2019-01-18T08:20:46.727Z,3.13
2019-01-18T08:21:50.254Z,3.17
2019-01-18T08:22:54.331Z,3.20
2019-01-18T08:23:57.986Z,3.16
2019-01-18T08:25:01.485Z,3.13
2019-01-18T08:26:05.209Z,3.22
2019-01-18T08:27:08.657Z,3.25
2019-01-18T08:28:12.350Z,3.24
2019-01-18T08:29:15.877Z,3.23
2019-01-18T08:30:21.919Z,3.18
2019-01-18T08:31:29.072Z,3.25
2019-01-18T08:32:30.580Z,3.32
2019-01-18T08:33:34.015Z,3.32
2019-01-18T08:34:37.508Z,3.28
2019-01-18T08:35:41.015Z,3.30
2019-01-18T08:36:44.448Z,3.30
2019-01-18T08:37:47.971Z,3.31
2019-01-18T08:38:51.401Z,3.27
2019-01-18T08:39:54.901Z,3.24
2019-01-18T08:40:58.335Z,3.25
2019-01-18T08:42:04.675Z,3.19
2019-01-18T08:43:10.799Z,3.15
2019-01-18T08:44:14.540Z,3.15
2019-01-18T08:45:23.759Z,3.17
2019-01-18T08:46:28.710Z,3.17
2019-01-18T08:47:35.241Z,3.26
2019-01-18T08:48:38.764Z,3.30
2019-01-18T08:49:42.279Z,3.22
2019-01-18T08:50:45.859Z,3.17
2019-01-18T08:51:49.283Z,3.19
2019-01-18T08:52:52.713Z,3.22
2019-01-18T08:53:56.161Z,3.17
2019-01-18T08:54:59.612Z,3.15
2019-01-18T08:56:03.234Z,3.15
2019-01-18T08:57:06.732Z,3.23
2019-01-18T08:58:10.282Z,3.21
2019-01-18T08:59:13.711Z,3.27
2019-01-18T09:00:20.204Z,3.31
2019-01-18T09:01:23.627Z,3.30
2019-01-18T09:02:27.192Z,3.21
2019-01-18T09:03:30.674Z,3.23
2019-01-18T09:04:34.246Z,3.20
2019-01-18T09:05:37.705Z,3.28
2019-01-18T09:06:41.136Z,3.34
2019-01-18T09:07:44.713Z,3.41
2019-01-18T09:08:48.373Z,3.40
2019-01-18T09:09:51.866Z,3.33
2019-01-18T09:10:55.357Z,3.28
2019-01-18T09:11:58.785Z,3.32
2019-01-18T09:13:02.243Z,3.35
2019-01-18T09:14:05.894Z,3.35
2019-01-18T09:15:11.368Z,3.42
2019-01-18T09:16:14.822Z,3.42
2019-01-18T09:17:18.368Z,3.47
2019-01-18T09:18:21.892Z,3.51
2019-01-18T09:19:25.317Z,3.56
2019-01-18T09:20:32.337Z,3.60
2019-01-18T09:21:35.849Z,3.57
2019-01-18T09:22:39.414Z,3.54
2019-01-18T09:23:42.867Z,3.53
2019-01-18T09:24:46.358Z,3.47
2019-01-18T09:25:49.784Z,3.48
2019-01-18T09:26:53.224Z,3.52
2019-01-18T09:27:57.022Z,3.55
2019-01-18T09:29:00.441Z,3.59
2019-01-18T09:30:05.452Z,3.67
2019-01-18T09:31:08.942Z,3.70
2019-01-18T09:32:12.575Z,3.68
2019-01-18T09:33:16.337Z,3.72
2019-01-18T09:34:19.838Z,3.76
2019-01-18T09:35:24.810Z,3.74
2019-01-18T09:36:28.306Z,3.69
2019-01-18T09:37:31.813Z,3.66
2019-01-18T09:38:35.248Z,3.66
2019-01-18T09:39:38.694Z,3.60
2019-01-18T09:40:42.273Z,3.66
2019-01-18T09:41:45.732Z,3.69
2019-01-18T09:42:49.281Z,3.67
2019-01-18T09:43:52.728Z,3.73
2019-01-18T09:44:56.156Z,3.67
2019-01-18T09:45:59.582Z,3.70
2019-01-18T09:47:03.021Z,3.62
2019-01-18T09:48:06.895Z,3.47
2019-01-18T09:49:10.454Z,3.35
2019-01-18T09:50:16.562Z,3.26
2019-01-18T09:51:20.067Z,3.21
2019-01-18T09:52:23.522Z,3.21
2019-01-18T09:53:27.042Z,3.28
2019-01-18T09:54:30.471Z,3.26
2019-01-18T09:55:34.127Z,3.36
2019-01-18T09:56:37.580Z,3.38
2019-01-18T09:57:41.087Z,3.39
2019-01-18T09:58:44.590Z,3.48
2019-01-18T09:59:48.017Z,3.51
2019-01-18T10:00:51.590Z,3.57
2019-01-18T10:01:55.016Z,3.69
2019-01-18T10:02:58.806Z,3.71
2019-01-18T10:04:02.310Z,3.69
2019-01-18T10:05:08.293Z,3.82
2019-01-18T10:06:11.729Z,3.82
2019-01-18T10:07:15.197Z,3.82
2019-01-18T10:08:18.647Z,3.89
2019-01-18T10:09:22.180Z,3.93
2019-01-18T10:10:25.686Z,3.93
2019-01-18T10:11:29.169Z,3.92
2019-01-18T10:12:32.605Z,3.91
2019-01-18T10:13:36.134Z,3.93
2019-01-18T10:14:39.571Z,3.92
2019-01-18T10:15:43.346Z,3.90
2019-01-18T10:16:46.779Z,3.81
2019-01-18T10:17:50.411Z,3.87
2019-01-18T10:18:53.917Z,3.85
2019-01-18T10:19:57.343Z,3.88
2019-01-18T10:21:00.928Z,3.94
2019-01-18T10:22:04.507Z,3.95
2019-01-18T10:23:08.113Z,3.98
2019-01-18T10:24:11.540Z,3.97
2019-01-18T10:25:16.409Z,4.00
2019-01-18T10:26:19.836Z,4.04
2019-01-18T10:27:23.967Z,4.06
2019-01-18T10:28:27.524Z,4.03
2019-01-18T10:29:30.967Z,4.06
2019-01-18T10:30:34.483Z,4.13
2019-01-18T10:31:38.004Z,4.19
2019-01-18T10:32:41.578Z,4.21
2019-01-18T10:33:45.008Z,4.22
2019-01-18T10:34:48.480Z,4.28
2019-01-18T10:35:54.119Z,4.34
2019-01-18T10:36:57.310Z,4.35
2019-01-18T10:38:00.812Z,4.26
2019-01-18T10:39:08.966Z,4.33
2019-01-18T10:40:14.875Z,4.29
2019-01-18T10:41:18.303Z,4.24
2019-01-18T10:42:21.871Z,4.15
2019-01-18T10:43:25.344Z,4.10
2019-01-18T10:44:28.873Z,4.13
2019-01-18T10:45:32.309Z,4.14
2019-01-18T10:46:35.747Z,4.13
2019-01-18T10:47:39.278Z,4.05
2019-01-18T10:48:42.722Z,4.07
2019-01-18T10:49:46.221Z,4.09
2019-01-18T10:50:49.786Z,4.17
2019-01-18T10:51:53.301Z,4.24
2019-01-18T10:52:56.894Z,4.30
2019-01-18T10:54:00.360Z,4.34
2019-01-18T10:55:04.303Z,4.40
2019-01-18T10:56:07.803Z,4.38
2019-01-18T10:57:11.294Z,4.40
2019-01-18T10:58:14.802Z,4.43
2019-01-18T10:59:18.258Z,4.46
2019-01-18T11:00:24.786Z,4.46
2019-01-18T11:01:28.213Z,4.52
2019-01-18T11:02:31.660Z,4.46
2019-01-18T11:03:35.199Z,4.44
2019-01-18T11:04:38.686Z,4.48
2019-01-18T11:05:42.210Z,4.49
2019-01-18T11:06:45.655Z,4.55
2019-01-18T11:07:49.418Z,4.52
2019-01-18T11:08:52.848Z,4.50
2019-01-18T11:09:56.310Z,4.43
2019-01-18T11:10:59.755Z,4.41
2019-01-18T11:12:03.201Z,4.22
2019-01-18T11:13:06.724Z,4.20
2019-01-18T11:14:10.252Z,4.30
2019-01-18T11:15:16.477Z,4.29
2019-01-18T11:16:19.897Z,4.33
2019-01-18T11:17:23.400Z,4.42
2019-01-18T11:18:26.907Z,4.42
2019-01-18T11:19:30.411Z,4.46
2019-01-18T11:20:51.925Z,4.55
2019-01-18T11:21:55.642Z,4.60
2019-01-18T11:23:00.214Z,4.54
2019-01-18T11:24:03.805Z,4.44
2019-01-18T11:25:09.158Z,4.45
2019-01-18T11:26:12.808Z,4.51
2019-01-18T11:27:16.306Z,4.55
2019-01-18T11:28:19.800Z,4.55
2019-01-18T11:29:29.179Z,4.52
2019-01-18T11:30:32.810Z,4.52
2019-01-18T11:31:36.246Z,4.54
2019-01-18T11:32:39.827Z,4.54
2019-01-18T11:33:43.390Z,4.53
2019-01-18T11:34:46.863Z,4.44
2019-01-18T11:35:50.389Z,4.40
2019-01-18T11:36:56.725Z,4.44
2019-01-18T11:37:59.179Z,4.50
2019-01-18T11:39:03.840Z,4.46
2019-01-18T11:40:10.315Z,4.47
2019-01-18T11:41:13.906Z,4.48
2019-01-18T11:42:17.504Z,4.55
2019-01-18T11:43:21.150Z,4.59
2019-01-18T11:44:24.596Z,4.60
2019-01-18T11:45:28.096Z,4.58
2019-01-18T11:46:31.600Z,4.62
2019-01-18T11:47:35.041Z,4.59
2019-01-18T11:48:38.541Z,4.52
2019-01-18T11:49:42.102Z,4.56
2019-01-18T11:50:45.600Z,4.63
2019-01-18T11:51:49.136Z,4.64
2019-01-18T11:52:52.637Z,4.65
2019-01-18T11:53:56.149Z,4.61
2019-01-18T11:54:59.567Z,4.60
2019-01-18T11:56:03.053Z,4.55
2019-01-18T11:57:06.527Z,4.54
2019-01-18T11:58:10.095Z,4.53
2019-01-18T11:59:13.656Z,4.50
2019-01-18T12:00:20.166Z,4.55
2019-01-18T12:01:23.600Z,4.56
2019-01-18T12:02:27.190Z,4.69
2019-01-18T12:03:30.799Z,4.72
2019-01-18T12:04:34.369Z,4.67
2019-01-18T12:05:37.862Z,4.68
2019-01-18T12:06:41.398Z,4.74
2019-01-18T12:07:44.956Z,4.85
2019-01-18T12:08:48.444Z,4.97
2019-01-18T12:09:51.864Z,5.04
2019-01-18T12:10:55.292Z,5.05
2019-01-18T12:11:58.723Z,5.13
2019-01-18T12:13:02.318Z,5.10
2019-01-18T12:14:05.804Z,5.08
2019-01-18T12:15:11.476Z,5.08
2019-01-18T12:16:14.906Z,5.21
2019-01-18T12:17:18.336Z,5.42
2019-01-18T12:18:21.792Z,5.55
2019-01-18T12:19:25.229Z,5.67
2019-01-18T12:20:33.710Z,5.83
2019-01-18T12:21:37.329Z,5.94
2019-01-18T12:22:40.860Z,6.07
2019-01-18T12:23:44.340Z,6.10
2019-01-18T12:24:47.764Z,6.04
2019-01-18T12:25:51.269Z,5.97
2019-01-18T12:26:54.755Z,5.94
2019-01-18T12:27:58.336Z,5.90
2019-01-18T12:29:01.797Z,5.88
2019-01-18T12:30:10.848Z,5.87
2019-01-18T12:31:14.272Z,5.81
2019-01-18T12:32:17.722Z,5.71
2019-01-18T12:33:21.217Z,5.59
2019-01-18T12:34:24.670Z,5.57
2019-01-18T12:35:28.169Z,5.57
2019-01-18T12:36:31.599Z,5.56
2019-01-18T12:37:35.045Z,5.53
2019-01-18T12:38:38.531Z,5.52
2019-01-18T12:39:41.959Z,5.50
2019-01-18T12:40:45.519Z,5.44
2019-01-18T12:41:49.026Z,5.42
2019-01-18T12:42:52.532Z,5.40
2019-01-18T12:43:56.046Z,5.40
2019-01-18T12:44:59.549Z,5.33
2019-01-18T12:46:03.116Z,5.33
2019-01-18T12:47:06.757Z,5.28
2019-01-18T12:48:10.296Z,5.34
2019-01-18T12:49:13.848Z,5.31
2019-01-18T12:50:22.712Z,5.21
2019-01-18T12:51:26.142Z,5.13
2019-01-18T12:52:29.588Z,5.16
2019-01-18T12:53:33.090Z,5.13
2019-01-18T12:54:36.524Z,5.13
2019-01-18T12:55:40.019Z,5.21
2019-01-18T12:56:43.502Z,5.13
2019-01-18T12:57:47.156Z,5.20
2019-01-18T12:58:50.598Z,5.23
2019-01-18T12:59:54.039Z,5.28
2019-01-18T13:00:57.517Z,5.27
2019-01-18T13:02:01.086Z,5.30
2019-01-18T13:03:04.782Z,5.22
2019-01-18T13:04:08.402Z,5.30
2019-01-18T13:05:17.496Z,5.38
2019-01-18T13:06:21.067Z,5.38
2019-01-18T13:07:24.580Z,5.25
2019-01-18T13:08:28.121Z,5.24
2019-01-18T13:09:31.608Z,5.16
2019-01-18T13:10:35.034Z,5.22
2019-01-18T13:11:38.570Z,5.30
2019-01-18T13:12:42.128Z,5.27
2019-01-18T13:13:45.566Z,5.33
2019-01-18T13:14:48.987Z,5.35
2019-01-18T13:15:57.255Z,5.32
2019-01-18T13:17:00.682Z,5.31
2019-01-18T13:18:04.302Z,5.25
2019-01-18T13:19:07.725Z,5.19
2019-01-18T13:20:14.841Z,5.15
2019-01-18T13:21:18.245Z,5.13
2019-01-18T13:22:25.990Z,5.17
2019-01-18T13:23:27.593Z,5.19
2019-01-18T13:24:31.024Z,5.24
2019-01-18T13:25:34.512Z,5.18
2019-01-18T13:26:38.082Z,5.17
2019-01-18T13:27:41.614Z,5.27
2019-01-18T13:28:45.080Z,5.26
2019-01-18T13:29:48.512Z,5.38
2019-01-18T13:30:51.934Z,5.44
2019-01-18T13:31:55.426Z,5.52
2019-01-18T13:32:58.941Z,5.59
2019-01-18T13:34:03.208Z,5.62
2019-01-18T13:35:08.183Z,5.57
2019-01-18T13:36:13.322Z,5.58
2019-01-18T13:37:16.816Z,5.58
2019-01-18T13:38:20.385Z,5.60
2019-01-18T13:39:23.891Z,5.62
2019-01-18T13:40:27.460Z,5.62
2019-01-18T13:41:31.033Z,5.62
2019-01-18T13:42:34.458Z,5.60
2019-01-18T13:43:37.978Z,5.59
2019-01-18T13:44:43.718Z,5.64
2019-01-18T13:45:46.559Z,5.75
2019-01-18T13:46:50.144Z,5.84
2019-01-18T13:47:53.662Z,5.83
2019-01-18T13:48:57.251Z,5.79
2019-01-18T13:50:00.670Z,5.84
2019-01-18T13:51:04.250Z,5.82
2019-01-18T13:52:07.763Z,5.82
2019-01-18T13:53:11.192Z,5.82
2019-01-18T13:54:14.798Z,5.69
2019-01-18T13:55:30.435Z,5.68
2019-01-18T13:56:33.877Z,5.74
2019-01-18T13:57:37.457Z,5.78
2019-01-18T13:58:41.037Z,5.91
2019-01-18T13:59:44.543Z,5.91
2019-01-18T14:00:48.031Z,5.96
2019-01-18T14:01:51.519Z,5.98
2019-01-18T14:02:55.111Z,5.88
2019-01-18T14:03:58.560Z,5.90
2019-01-18T14:05:01.966Z,5.95
2019-01-18T14:06:05.468Z,5.94
2019-01-18T14:07:09.034Z,5.84
2019-01-18T14:08:12.570Z,5.77
2019-01-18T14:09:16.143Z,5.74